SÍGUENOS

APP INUMET

Disponible en Google Play

Productos aeronáuticos

  • SIGMET
  • METAR / SPECI
  • TAF
  • AIREP
  • Aviso de aeródromo
  • Pronárea
  • Carta superficie
Fecha : 20/09/2017
FTUY 04 SUMU 20 17 30
SUMU TAF 201730Z 2018/2118 02012KT 8000 SCT040 BKN080 TX15/2118Z TN12/2110Z BECMG 2020/2022 22012KT BECMG 2100/2102 17020KT 9999 BKN015 PROB30 TEMPO 2022/2112 18020G30KT 4000 TSRA BKN010 FEW040CB OVC050 =
SULS TAF 201730Z 2018/2118 02012KT 8000 SCT040 BKN080 TX15/2118Z TN12/2110Z BECMG 2020/2022 22012KT BECMG 2100/2102 17020KT 9999 BKN015 PROB30 TEMPO 2022/2112 18020G30KT 4000 TSRA BKN010 FEW040CB OVC050 =
SUAA TAF 201730Z 2018/2118 02012KT 8000 SCT040 BKN080 TX15/2118Z TN12/2110Z BECMG 2020/2022 22012KT BECMG 2100/2102 17020KT 9999 BKN015 PROB30 TEMPO 2022/2112 18020G30KT 4000 TSRA BKN010 FEW040CB OVC050 =
SUCA TAF 201730Z 2018/2118 19012KT 9999 FEW015 BKN040 TX15/2018Z TN12/2110Z PROB30 TEMPO 2022/2112 18020G30KT 4000 TSRA BKN010 FEW040CB OVC050 BECMG 2102/2104 17020KT 9999 BKN015=
SUDU TAF 201730Z 2018/2118 02010KT 9999 SCT025 SCT080 TX19/2118Z TN13/2110Z PROB30 TEMPO 2100/2106 18020G30KT 4000 TSRA BKN010 FEW040CB BECMG 2104/2106 16015KT 9999 BKN015 BKN040=
SUSO TAF 201730Z 2018/2118 04015KT 8000 NSC TX19/2118Z TN14/2110Z BECMG 2102/2104 14012KT 9999 BKN010 PROB30 TEMPO 2100/2112 3000 BR =
SURV TAF 201730Z 2018/2118 01015KT 8000 NSC TX19/2118Z TN14/2110Z BECMG 2102/2104 14012KT 9999 BKN010 PROB30 TEMPO 2100/2112 3000 BR =

Predictor : Ana Olivera


Mensajes TAF vigentes - Internacionales


Argentina
TAF SABE 201700Z 2018/2118 23015KT 9999 SCT035 BKN100 TX24/2019Z TN12/2109Z BECMG 2020/2022 20015G25KT BKN015 BECMG 2106/2108 16015KT 7000 -TSRA OVC010 FEW040CB OVC045 BECMG 2109/2111 16010KT 5000 RA OVC012 OVC045
TAF SAEZ 201700Z 2018/2118 23015G25KT 8000 SCT030 FEW050TCU BKN070 TX25/2019Z TN10/2110Z BECMG 2100/2103 16015KT 8000 RADZ OVC040 PROB30 TEMPO 2106/2112 16010KT 5000 -TSRA BKN015 FEW050CB OVC060 BECMG 2115/2118 8000 RADZ BKN010 BKN030
TAF SACO 201700Z 2018/2118 18025G35KT 6000 BKN030 TX18/2115Z TN06/2106Z BECMG 2022/2102 18015KT 4000 SHRA VCTS BKN020 FEW040CB
TAF SAME 201700Z 2018/2118 18015KT 9999 BKN040 TX16/2020Z TN10/2110Z BECMG 2020/2022 14005KT 9999 SCT045
TAF SAAR 201700Z 2018/2118 22015G25KT 8000 NSC TX29/2019Z TN12/2109Z BECMG 2101/2103 19015KT 7000 -TSRA OVC010 FEW040CB OVC045 BECMG 2110/2112 16010KT 7000 RA BKN015 OVC050
Bolivia
TAF SLLP 201600Z 2018/2118 32010KT 9999 FEW020 TX19/2020Z TNM01/2110Z BECMG 2023/2101 07005KT FEW015 TEMPO 2106/2110 4000E VCFG FEW002 SCT013 BECMG 2112/2114 13008KT 8000 SCT015 SCT070
Brasil
TAF SBSP 201612Z 2018/2118 17010KT CAVOK TN14/2109Z TX30/2117Z TEMPO 2100/2102 6000 BECMG 2102/2104 14003KT 4000 BR NSC PROB30 2108/2110 BKN008 BECMG 2113/2115 15005KT CAVOK RMK PHM
TAF SBGR 201612Z 2018/2124 13005KT 9999 FEW030 TN13/2109Z TX30/2117Z PROB40 2102/2105 08003KT 4000 BR NSC BECMG 2105/2107 BKN008 PROB30 2108/2110 0400 FG BKN001 BECMG 2113/2115 15005KT CAVOK BECMG 2120/2122 17003KT TEMPO 2122/2124 7000 RMK PHM
TAF SBBR 201600Z 2018/2118 17008KT 8000 NSC TX29/2018Z TN18/2107Z PROB30 2020/2021 FEW040TCU BECMG 2022/2024 35005KT CAVOK BECMG 2110/2112 07010KT PROB30 2116/2118 FEW040TCU RMK PDA
TAF SBPA 201530Z 2018/2118 10004KT CAVOK TX31/2018Z TN18/2110Z PROB40 TEMPO 2106/2112 36002KT 3000 BR SCT005 RMK PDN
TAF SBFL 201530Z 2018/2118 35010KT 9999 FEW025 TN20/2107Z TX25/2116Z PROB30 TEMPO 2018/2021 02013KT BECMG 2116/2118 02015KT RMK PDN
TAF SBFI 201530Z 2018/2118 09005KT CAVOK TX37/2018Z TN22/2109Z PROB30 TEMPO 2018/2102 03005KT RMK PDN
TAF SBRJ 201500Z 2018/2106 17010KT CAVOK TX27/2018Z TN20/2106Z RMK PHD
Chile
TAF SCCI 201642Z 2018/2118 32015G29KT 9000 FEW025 BKN045 TX11/2118Z TN05/2104Z BECMG 2021/2023 29020G30KT TEMPO 2103/2109 7000 -SHRA FEW011 BKN018 BECMG 2110/2112 26020G30KT 9999 NSW SCT030 BECMG 2115/2117 FEW040
TAF SCEL 201605Z 2018/2118 16004KT 9999 SCT035 TX19/2018Z TN05/2110Z BECMG 2019/2021 20013KT BECMG 2021/2023 CAVOK BECMG 2101/2103 15004KT TEMPO 2108/2113 VRB02KT 4000 HZ NSC
Ecuador
SEQM 201620Z 2018/2118 35012KT CAVOK FM210000 03004KT 9999 FEW030 FM210500 00000KT 9999 SCT005 TEMPO 2106/2108 6000 BCFG FM211200 VRB03KT 9999 FEW040 TX26/2019Z TN05/2111Z
EEUU
KJFK 201934Z 2020/2124 35017G26KT P6SM SCT040 BKN250 FM210000 35011KT P6SM SCT120 FM211600 35014G21KT P6SM SCT050
KLGA 201934Z 2020/2118 35014G23KT P6SM BKN035 BKN250 FM210000 35010KT P6SM SCT120 FM211600 35014G21KT P6SM SCT050
KMIA 201929Z 2019/2118 10008KT P6SM VCSH SCT035 SCT045 FM202100 12010KT P6SM SCT035 FM210000 VRB02KT P6SM FEW025 SCT250
KDCA 201720Z 2018/2118 31010KT P6SM FEW050 SCT200 FM210000 31005KT P6SM SCT200 FM210300 VRB03KT P6SM SCT200
KIAD 201720Z 2018/2124 33010KT P6SM FEW050 SCT200 FM210000 33005KT P6SM SCT200 FM210300 VRB03KT P6SM SCT200 FM211500 34007KT P6SM SCT050 SCT200
Francia
TAF LFPO 201700Z 2018/2124 17005KT CAVOK BECMG 2121/2124 30003KT BKN045
Paraguay
TAF SGAS 201611Z 2018/2118 04015KT CAVOK TX37/2019Z TN22/2110Z BECMG 2022/2023 8000 NSC BECMG 2102/2104 CAVOK
Venezuela
TAF SVMI 192200Z 2000/2100 07003KT 9999 FEW016 TX32/18Z TN25/09Z BECMG 2000/2004 05005KT 9999 SCT016 SCT080

* Datos extraidos del Text DataServer de la NOAA (NOAA TEXT DATA SERVER)

Instituto Uruguayo de Meteorología

Dr. Javier Barrios Amorín 1488 - CP 11200
Mesa Central (598) 1895

Montevideo - Uruguay